Time;durP1;ratioP1;P1;durP2;ratioP2;P2;SDS_P1;SDS_P2;PMS_P1;PMS_P2;Temp;Humidity;BMP_temperature;BMP_pressure;BME280_temperature;BME280_humidity;BME280_pressure;Samples;Min_cycle;Max_cycle;Signal;HPM_P1;HPM_P2
2021/04/03 00:00:06;;;;;;;21.90;3.33;;;;;;;;;;5013628;28;20026;-59
2021/04/03 00:02:33;;;;;;;24.05;3.35;;;;;;;;;;5016519;28;20030;-59
2021/04/03 00:04:58;;;;;;;18.02;3.17;;;;;;;;;;5032217;28;20481;-59
2021/04/03 00:07:23;;;;;;;24.73;5.30;;;;;;;;;;5032696;28;20087;-59
2021/04/03 00:09:49;;;;;;;37.23;7.33;;;;;;;;;;5032572;28;20061;-58
2021/04/03 00:12:15;;;;;;;17.48;2.83;;;;;;;;;;5032400;28;20045;-58
2021/04/03 00:14:40;;;;;;;23.03;3.90;;;;;;;;;;5033202;28;20087;-59
2021/04/03 00:17:05;;;;;;;18.67;3.50;;;;;;;;;;5031748;28;20057;-59
2021/04/03 00:19:31;;;;;;;19.77;2.97;;;;;;;;;;5031829;28;20029;-58
2021/04/03 00:21:56;;;;;;;32.07;4.80;;;;;;;;;;5017895;28;20045;-60
2021/04/03 00:24:21;;;;;;;34.13;4.70;;;;;;;;;;5012424;28;20113;-60
2021/04/03 00:26:47;;;;;;;16.23;3.23;;;;;;;;;;5012938;28;20470;-58
2021/04/03 00:29:12;;;;;;;15.07;3.03;;;;;;;;;;5011679;28;20021;-60
2021/04/03 00:31:38;;;;;;;27.10;3.65;;;;;;;;;;5012722;28;20091;-59
2021/04/03 00:34:03;;;;;;;25.10;3.47;;;;;;;;;;5012291;28;20033;-59
2021/04/03 00:36:29;;;;;;;24.65;3.22;;;;;;;;;;5011483;28;20042;-61
2021/04/03 00:38:54;;;;;;;16.73;3.73;;;;;;;;;;5012625;28;20056;-59
2021/04/03 00:41:20;;;;;;;23.07;4.17;;;;;;;;;;5012139;28;20041;-58
2021/04/03 00:43:45;;;;;;;24.10;3.10;;;;;;;;;;5012506;28;20064;-59
2021/04/03 00:46:10;;;;;;;29.87;3.67;;;;;;;;;;5012605;28;20026;-59
2021/04/03 00:48:36;;;;;;;16.97;5.00;;;;;;;;;;5011431;28;20068;-59
2021/04/03 00:51:03;;;;;;;20.73;3.25;;;;;;;;;;5012828;28;20086;-59
2021/04/03 00:53:29;;;;;;;19.73;3.22;;;;;;;;;;5011866;28;20504;-58
2021/04/03 00:56:03;;;;;;;18.85;3.40;;;;;;;;;;5007569;28;20467;-59
2021/04/03 00:58:29;;;;;;;12.93;3.05;;;;;;;;;;4992113;28;20161;-58
2021/04/03 01:00:56;;;;;;;23.95;3.47;;;;;;;;;;4991137;28;20125;-58
2021/04/03 01:03:24;;;;;;;18.08;3.65;;;;;;;;;;4990527;28;20045;-59
2021/04/03 01:05:51;;;;;;;17.83;2.95;;;;;;;;;;4991506;28;20034;-60
2021/04/03 01:08:17;;;;;;;22.55;3.58;;;;;;;;;;4990702;28;20037;-58
2021/04/03 01:10:47;;;;;;;16.92;3.17;;;;;;;;;;4992339;28;20501;-58
2021/04/03 01:13:39;;;;;;;21.65;2.70;;;;;;;;;;4991131;28;20121;-59
2021/04/03 01:16:08;;;;;;;17.92;4.13;;;;;;;;;;5025089;28;20029;-59
2021/04/03 01:18:45;;;;;;;23.35;3.03;;;;;;;;;;5023934;28;20374;-59
2021/04/03 01:21:17;;;;;;;14.70;3.17;;;;;;;;;;5031049;28;20036;-59
2021/04/03 01:24:02;;;;;;;19.92;2.55;;;;;;;;;;5024029;28;20064;-59
2021/04/03 01:26:47;;;;;;;22.88;3.10;;;;;;;;;;4991491;28;20031;-59
2021/04/03 01:29:28;;;;;;;15.75;2.50;;;;;;;;;;4991925;28;20394;-59
2021/04/03 01:31:56;;;;;;;27.20;4.78;;;;;;;;;;4991177;28;20382;-59
2021/04/03 01:34:25;;;;;;;17.65;3.53;;;;;;;;;;4993610;28;20065;-57
2021/04/03 01:36:52;;;;;;;17.10;2.63;;;;;;;;;;5031301;28;20037;-59
2021/04/03 01:39:22;;;;;;;11.38;3.00;;;;;;;;;;5019438;28;20030;-59
2021/04/03 01:41:48;;;;;;;20.58;3.15;;;;;;;;;;5015327;28;20100;-59
2021/04/03 01:44:34;;;;;;;25.60;3.92;;;;;;;;;;5020085;28;20030;-59
2021/04/03 01:47:01;;;;;;;17.08;2.45;;;;;;;;;;5019326;28;20030;-59
2021/04/03 01:49:27;;;;;;;16.73;3.20;;;;;;;;;;5021733;28;20462;-59
2021/04/03 01:51:53;;;;;;;12.07;2.77;;;;;;;;;;5024481;28;20192;-58
2021/04/03 01:54:23;;;;;;;20.42;3.15;;;;;;;;;;5023292;28;20375;-57
2021/04/03 01:56:52;;;;;;;20.58;2.60;;;;;;;;;;5021529;28;20040;-58
2021/04/03 01:59:23;;;;;;;21.95;3.40;;;;;;;;;;5045716;28;20033;-58
2021/04/03 02:01:53;;;;;;;13.02;2.40;;;;;;;;;;5021235;28;20033;-59
2021/04/03 02:04:21;;;;;;;37.75;3.60;;;;;;;;;;5023202;28;20041;-59
2021/04/03 02:06:49;;;;;;;18.42;3.33;;;;;;;;;;5023428;28;20027;-59
2021/04/03 02:09:29;;;;;;;19.02;4.57;;;;;;;;;;5022876;28;20107;-59
2021/04/03 02:12:04;;;;;;;22.05;2.95;;;;;;;;;;5023540;28;20103;-59
2021/04/03 02:14:50;;;;;;;12.07;2.42;;;;;;;;;;5020239;28;20516;-59
2021/04/03 02:17:18;;;;;;;15.32;3.53;;;;;;;;;;5046760;28;20039;-59
2021/04/03 02:19:45;;;;;;;11.20;2.42;;;;;;;;;;5024265;28;20032;-59
2021/04/03 02:22:14;;;;;;;20.48;2.85;;;;;;;;;;5038486;28;20022;-59
2021/04/03 02:24:42;;;;;;;12.70;2.67;;;;;;;;;;5020659;28;20033;-59
2021/04/03 02:27:08;;;;;;;11.63;2.25;;;;;;;;;;5039709;28;20462;-59
2021/04/03 02:29:34;;;;;;;17.85;2.67;;;;;;;;;;5022605;28;20117;-59
2021/04/03 02:31:59;;;;;;;16.80;3.80;;;;;;;;;;5022955;28;20522;-59
2021/04/03 02:34:25;;;;;;;15.77;3.10;;;;;;;;;;5017557;28;20655;-56
2021/04/03 02:36:50;;;;;;;21.70;5.13;;;;;;;;;;5029924;28;20113;-60
2021/04/03 02:39:15;;;;;;;22.90;4.20;;;;;;;;;;5014689;28;20034;-59
2021/04/03 02:41:46;;;;;;;20.70;2.97;;;;;;;;;;5014051;28;20124;-59
2021/04/03 02:44:18;;;;;;;17.52;2.90;;;;;;;;;;5013100;28;20037;-59
2021/04/03 02:46:46;;;;;;;14.55;2.28;;;;;;;;;;5014035;28;20042;-59
2021/04/03 02:49:15;;;;;;;9.70;2.08;;;;;;;;;;5014540;28;20120;-58
2021/04/03 02:51:44;;;;;;;16.25;2.63;;;;;;;;;;5012329;28;20121;-60
2021/04/03 02:54:17;;;;;;;17.88;2.78;;;;;;;;;;5014557;28;20530;-59
2021/04/03 02:56:44;;;;;;;14.93;2.40;;;;;;;;;;5013365;28;20100;-59
2021/04/03 02:59:15;;;;;;;23.65;3.80;;;;;;;;;;5012715;28;20497;-60
2021/04/03 03:01:41;;;;;;;18.95;3.72;;;;;;;;;;5013554;28;20026;-58
2021/04/03 03:04:07;;;;;;;23.52;3.40;;;;;;;;;;5014053;28;20092;-59
2021/04/03 03:06:33;;;;;;;16.00;3.40;;;;;;;;;;5013485;28;20121;-59
2021/04/03 03:09:02;;;;;;;17.38;3.35;;;;;;;;;;5014076;28;20477;-60
2021/04/03 03:11:28;;;;;;;12.23;2.50;;;;;;;;;;5013769;28;20489;-60
2021/04/03 03:14:00;;;;;;;13.70;3.58;;;;;;;;;;5014293;28;20397;-58
2021/04/03 03:16:26;;;;;;;17.50;2.80;;;;;;;;;;5029162;28;20041;-59
2021/04/03 03:18:51;;;;;;;14.35;2.75;;;;;;;;;;5012078;28;20117;-58
2021/04/03 03:21:20;;;;;;;26.88;3.28;;;;;;;;;;5012637;28;20045;-60
2021/04/03 03:23:46;;;;;;;28.65;4.07;;;;;;;;;;5013202;28;20080;-59
2021/04/03 03:26:13;;;;;;;17.42;3.55;;;;;;;;;;5012667;28;20038;-58
2021/04/03 03:28:39;;;;;;;20.17;3.43;;;;;;;;;;5013196;28;20088;-58
2021/04/03 03:31:06;;;;;;;21.90;3.20;;;;;;;;;;5013566;28;20446;-59
2021/04/03 03:33:32;;;;;;;29.03;4.10;;;;;;;;;;5011801;28;20398;-57
2021/04/03 03:35:59;;;;;;;23.98;3.83;;;;;;;;;;5028725;28;20038;-59
2021/04/03 03:38:25;;;;;;;24.58;3.97;;;;;;;;;;5013681;28;20034;-60
2021/04/03 03:40:54;;;;;;;22.63;4.35;;;;;;;;;;5012778;28;20230;-59
2021/04/03 03:43:21;;;;;;;27.55;3.83;;;;;;;;;;5013399;28;20038;-59
2021/04/03 03:45:49;;;;;;;22.45;3.88;;;;;;;;;;5012831;28;20034;-58
2021/04/03 03:48:15;;;;;;;21.35;3.65;;;;;;;;;;5011751;28;20382;-59
2021/04/03 03:50:41;;;;;;;17.17;2.35;;;;;;;;;;5011142;28;20058;-58
2021/04/03 03:53:08;;;;;;;13.57;2.80;;;;;;;;;;5013251;28;20037;-58
2021/04/03 03:55:34;;;;;;;20.80;2.80;;;;;;;;;;5011306;28;20041;-57
2021/04/03 03:58:03;;;;;;;23.92;3.30;;;;;;;;;;5028349;28;20128;-59
2021/04/03 04:00:32;;;;;;;22.35;3.95;;;;;;;;;;5012059;28;20030;-59
2021/04/03 04:03:05;;;;;;;25.23;3.35;;;;;;;;;;5013080;28;20421;-58
2021/04/03 04:05:35;;;;;;;25.23;3.47;;;;;;;;;;5012062;28;20033;-55
2021/04/03 04:08:04;;;;;;;26.23;3.47;;;;;;;;;;5012759;28;20042;-60
2021/04/03 04:10:31;;;;;;;;;;;;;;;;;;4995548;28;20076;-59
2021/04/03 04:12:56;;;;;;;23.90;4.63;;;;;;;;;;5010552;28;20333;-58
2021/04/03 04:15:22;;;;;;;18.60;3.10;;;;;;;;;;4995406;28;20536;-58
2021/04/03 04:17:50;;;;;;;25.05;4.78;;;;;;;;;;5012134;28;20041;-58
2021/04/03 04:20:16;;;;;;;16.08;3.30;;;;;;;;;;5011620;28;20030;-59
2021/04/03 04:22:47;;;;;;;39.70;3.75;;;;;;;;;;5010684;28;20034;-59
2021/04/03 04:25:13;;;;;;;20.88;4.05;;;;;;;;;;5011169;28;20087;-59
2021/04/03 04:27:43;;;;;;;24.15;3.70;;;;;;;;;;5010538;28;20462;-59
2021/04/03 04:30:09;;;;;;;24.00;3.20;;;;;;;;;;5011257;28;20029;-60
2021/04/03 04:32:37;;;;;;;25.83;4.45;;;;;;;;;;5011374;28;20037;-60
2021/04/03 04:35:03;;;;;;;36.15;5.50;;;;;;;;;;5010587;28;20073;-59
2021/04/03 04:37:29;;;;;;;27.15;4.75;;;;;;;;;;5011068;28;20026;-59
2021/04/03 04:39:56;;;;;;;18.98;3.55;;;;;;;;;;5026834;28;20038;-59
2021/04/03 04:42:24;;;;;;;21.20;3.67;;;;;;;;;;5027563;28;20037;-59
2021/04/03 04:44:56;;;;;;;26.58;4.10;;;;;;;;;;5011752;28;20026;-59
2021/04/03 04:47:22;;;;;;;26.83;4.15;;;;;;;;;;5011201;28;20434;-60
2021/04/03 04:49:47;;;;;;;20.58;6.90;;;;;;;;;;5026806;28;20060;-59
2021/04/03 04:52:14;;;;;;;30.23;4.18;;;;;;;;;;4994490;28;20058;-59
2021/04/03 04:54:40;;;;;;;27.93;4.43;;;;;;;;;;5011001;28;20129;-59
2021/04/03 04:57:10;;;;;;;33.88;4.65;;;;;;;;;;5027216;28;20045;-59
2021/04/03 04:59:46;;;;;;;36.47;5.93;;;;;;;;;;5010248;28;20030;-59
2021/04/03 05:02:16;;;;;;;24.95;3.80;;;;;;;;;;5013596;28;20183;-59
2021/04/03 05:04:41;;;;;;;31.50;7.23;;;;;;;;;;5012783;28;20217;-59
2021/04/03 05:07:07;;;;;;;23.87;4.17;;;;;;;;;;5027186;28;20519;-58
2021/04/03 05:09:32;;;;;;;35.03;5.17;;;;;;;;;;5011771;28;20045;-59
2021/04/03 05:11:58;;;;;;;35.37;4.20;;;;;;;;;;5010911;28;20121;-59
2021/04/03 05:14:23;;;;;;;42.90;9.30;;;;;;;;;;5013593;28;20038;-59
2021/04/03 05:16:48;;;;;;;28.47;4.70;;;;;;;;;;5011674;28;20517;-60
2021/04/03 05:19:14;;;;;;;27.83;4.47;;;;;;;;;;5010663;28;20038;-59
2021/04/03 05:21:39;;;;;;;42.37;5.53;;;;;;;;;;5011680;28;20038;-60
2021/04/03 05:24:05;;;;;;;35.87;5.57;;;;;;;;;;5011153;28;20109;-59
2021/04/03 05:26:30;;;;;;;28.87;6.30;;;;;;;;;;5011885;28;20038;-60
2021/04/03 05:28:55;;;;;;;40.27;5.33;;;;;;;;;;5009834;28;20034;-59
2021/04/03 05:31:21;;;;;;;35.37;5.10;;;;;;;;;;5011838;28;20042;-60
2021/04/03 05:33:47;;;;;;;35.50;4.70;;;;;;;;;;5011440;28;20022;-58
2021/04/03 05:36:12;;;;;;;34.08;5.20;;;;;;;;;;5013523;28;20263;-58
2021/04/03 05:38:38;;;;;;;35.97;5.80;;;;;;;;;;5011862;28;20052;-59
2021/04/03 05:41:03;;;;;;;27.97;4.50;;;;;;;;;;5011154;28;20117;-59
2021/04/03 05:43:29;;;;;;;32.57;4.63;;;;;;;;;;5011980;28;20046;-60
2021/04/03 05:45:56;;;;;;;22.43;4.83;;;;;;;;;;5026084;28;20041;-59
2021/04/03 05:48:22;;;;;;;25.45;6.65;;;;;;;;;;5011439;28;20498;-59
2021/04/03 05:50:48;;;;;;;27.92;4.95;;;;;;;;;;5010760;28;20042;-58
2021/04/03 05:53:14;;;;;;;33.72;6.07;;;;;;;;;;5011843;28;20092;-58
2021/04/03 05:55:39;;;;;;;24.98;3.92;;;;;;;;;;5011256;28;20042;-61
2021/04/03 05:58:05;;;;;;;28.60;4.90;;;;;;;;;;5026063;28;20034;-60
2021/04/03 06:00:31;;;;;;;32.67;6.40;;;;;;;;;;5011473;28;20026;-60
2021/04/03 06:02:56;;;;;;;32.70;6.13;;;;;;;;;;5010668;28;20033;-60
2021/04/03 06:05:22;;;;;;;26.33;4.43;;;;;;;;;;5010071;28;20053;-59
2021/04/03 06:07:47;;;;;;;28.03;6.10;;;;;;;;;;5011101;28;20030;-60
2021/04/03 06:10:12;;;;;;;35.87;7.50;;;;;;;;;;5026220;28;20045;-60
2021/04/03 06:12:45;;;;;;;29.47;7.30;;;;;;;;;;5011232;28;20037;-60
2021/04/03 06:15:12;;;;;;;35.80;5.70;;;;;;;;;;5010836;28;20564;-59
2021/04/03 06:17:37;;;;;;;36.08;7.40;;;;;;;;;;5011345;28;20032;-59
2021/04/03 06:20:03;;;;;;;36.60;6.97;;;;;;;;;;5010423;28;20042;-59
2021/04/03 06:22:39;;;;;;;46.50;6.53;;;;;;;;;;5010016;28;20045;-60
2021/04/03 06:25:05;;;;;;;33.75;5.35;;;;;;;;;;5010745;28;20033;-59
2021/04/03 06:27:30;;;;;;;31.47;4.40;;;;;;;;;;5011222;28;20037;-59
2021/04/03 06:30:27;;;;;;;26.05;6.63;;;;;;;;;;5009429;28;20358;-60
2021/04/03 06:32:53;;;;;;;27.40;5.43;;;;;;;;;;4993091;28;20570;-58
2021/04/03 06:35:24;;;;;;;34.63;4.97;;;;;;;;;;5013430;28;20121;-60
2021/04/03 06:37:49;;;;;;;25.05;5.70;;;;;;;;;;5030196;28;20040;-59
2021/04/03 06:40:15;;;;;;;31.37;4.80;;;;;;;;;;5014142;28;20092;-59
2021/04/03 06:42:48;;;;;;;31.23;4.70;;;;;;;;;;5029972;28;20034;-59
2021/04/03 06:45:19;;;;;;;24.92;5.07;;;;;;;;;;5012682;28;20048;-57
2021/04/03 06:47:46;;;;;;;37.22;6.15;;;;;;;;;;5029826;28;20030;-59
2021/04/03 06:50:12;;;;;;;26.33;6.53;;;;;;;;;;5012646;28;20033;-60
2021/04/03 06:52:38;;;;;;;41.30;8.82;;;;;;;;;;5014562;28;20494;-59
2021/04/03 06:55:04;;;;;;;27.60;5.87;;;;;;;;;;5013800;28;20025;-59
2021/04/03 06:57:30;;;;;;;39.45;5.63;;;;;;;;;;5013116;28;20369;-59
2021/04/03 06:59:56;;;;;;;43.50;6.68;;;;;;;;;;5013932;28;20042;-59
2021/04/03 07:02:22;;;;;;;28.95;4.30;;;;;;;;;;5014656;28;20040;-60
2021/04/03 07:04:48;;;;;;;40.72;6.38;;;;;;;;;;5014359;28;20053;-59
2021/04/03 07:07:13;;;;;;;33.37;5.93;;;;;;;;;;5012483;28;20046;-59
2021/04/03 07:09:40;;;;;;;35.30;4.97;;;;;;;;;;5014252;28;20030;-59
2021/04/03 07:12:06;;;;;;;34.17;6.53;;;;;;;;;;5013797;28;20032;-58
2021/04/03 07:14:32;;;;;;;24.23;5.43;;;;;;;;;;5014251;28;20048;-58
2021/04/03 07:16:58;;;;;;;46.40;5.72;;;;;;;;;;5012560;28;20354;-58
2021/04/03 07:19:27;;;;;;;32.70;5.95;;;;;;;;;;5014015;28;20080;-58
2021/04/03 07:21:53;;;;;;;29.38;6.82;;;;;;;;;;5014130;28;20037;-58
2021/04/03 07:24:18;;;;;;;22.77;4.53;;;;;;;;;;5013252;28;20226;-59
2021/04/03 07:26:51;;;;;;;42.10;5.70;;;;;;;;;;5014089;28;20056;-59
2021/04/03 07:29:35;;;;;;;38.88;6.22;;;;;;;;;;5013099;28;20118;-59
2021/04/03 07:32:00;;;;;;;31.45;5.65;;;;;;;;;;5013379;28;20112;-59
2021/04/03 07:34:42;;;;;;;30.13;5.70;;;;;;;;;;5029291;28;20065;-59
2021/04/03 07:37:10;;;;;;;25.92;4.50;;;;;;;;;;5013262;28;20536;-59
2021/04/03 07:39:39;;;;;;;36.15;6.65;;;;;;;;;;5013640;28;20502;-59
2021/04/03 07:42:06;;;;;;;29.95;4.93;;;;;;;;;;5011892;28;20041;-58
2021/04/03 07:44:37;;;;;;;28.60;4.85;;;;;;;;;;5013523;28;20030;-59
2021/04/03 07:47:18;;;;;;;30.23;4.53;;;;;;;;;;5010706;28;20041;-57
2021/04/03 07:49:43;;;;;;;27.17;5.18;;;;;;;;;;5013537;28;20133;-60
2021/04/03 07:52:09;;;;;;;27.42;5.68;;;;;;;;;;5012528;28;20506;-60
2021/04/03 07:54:35;;;;;;;29.50;4.77;;;;;;;;;;5013857;28;20065;-58
2021/04/03 07:57:01;;;;;;;16.40;3.42;;;;;;;;;;4995952;28;20470;-59
2021/04/03 07:59:42;;;;;;;35.07;5.03;;;;;;;;;;5012941;28;20060;-59
2021/04/03 08:02:12;;;;;;;25.48;5.85;;;;;;;;;;5011003;28;20069;-58
2021/04/03 08:04:37;;;;;;;24.40;5.53;;;;;;;;;;5013298;28;20037;-58
2021/04/03 08:07:03;;;;;;;35.20;4.87;;;;;;;;;;5013361;28;20042;-59
2021/04/03 08:09:32;;;;;;;25.08;5.28;;;;;;;;;;5012782;28;20034;-59
2021/04/03 08:11:58;;;;;;;24.55;5.25;;;;;;;;;;5011782;28;20057;-59
2021/04/03 08:14:26;;;;;;;30.48;5.28;;;;;;;;;;5012603;28;20072;-58
2021/04/03 08:16:52;;;;;;;34.97;6.00;;;;;;;;;;5012806;28;20482;-60
2021/04/03 08:19:22;;;;;;;27.47;5.40;;;;;;;;;;5012595;28;20240;-59
2021/04/03 08:21:48;;;;;;;17.83;3.30;;;;;;;;;;5013154;28;20040;-59
2021/04/03 08:24:14;;;;;;;25.05;4.05;;;;;;;;;;5011989;28;20030;-59
2021/04/03 08:26:40;;;;;;;23.45;4.72;;;;;;;;;;5012654;28;20033;-60
2021/04/03 08:29:06;;;;;;;24.50;4.03;;;;;;;;;;5011580;28;20105;-59
2021/04/03 08:31:33;;;;;;;29.30;5.18;;;;;;;;;;5012602;28;20026;-59
2021/04/03 08:34:03;;;;;;;32.75;4.97;;;;;;;;;;5011472;28;20474;-59
2021/04/03 08:36:30;;;;;;;29.30;4.60;;;;;;;;;;5011943;28;20025;-57
2021/04/03 08:39:00;;;;;;;36.45;6.40;;;;;;;;;;5012626;28;20152;-59
2021/04/03 08:41:27;;;;;;;17.17;3.83;;;;;;;;;;5011976;28;20034;-59
2021/04/03 08:43:53;;;;;;;14.23;3.08;;;;;;;;;;5011192;28;20034;-60
2021/04/03 08:46:19;;;;;;;22.05;4.13;;;;;;;;;;5010563;28;20104;-59
2021/04/03 08:48:45;;;;;;;21.50;4.40;;;;;;;;;;5010838;28;20508;-59
2021/04/03 08:51:11;;;;;;;23.33;5.20;;;;;;;;;;5010030;28;20478;-58
2021/04/03 08:53:37;;;;;;;28.80;4.63;;;;;;;;;;5010784;28;20159;-59
2021/04/03 08:56:02;;;;;;;21.17;4.20;;;;;;;;;;5010768;28;20033;-58
2021/04/03 08:58:27;;;;;;;12.93;3.00;;;;;;;;;;5011368;28;20064;-58
2021/04/03 09:00:53;;;;;;;29.60;4.97;;;;;;;;;;5012267;28;20033;-59
2021/04/03 09:03:18;;;;;;;23.87;4.53;;;;;;;;;;5013993;28;20045;-59
2021/04/03 09:05:50;;;;;;;24.13;4.83;;;;;;;;;;5010831;28;20042;-59
2021/04/03 09:08:22;;;;;;;31.58;5.32;;;;;;;;;;5010289;28;20038;-59
2021/04/03 09:10:52;;;;;;;26.90;4.70;;;;;;;;;;5010898;28;20119;-58
2021/04/03 09:13:17;;;;;;;20.37;3.87;;;;;;;;;;5010141;28;20627;-59
2021/04/03 09:15:45;;;;;;;22.17;3.73;;;;;;;;;;5010899;28;20271;-58
2021/04/03 09:18:11;;;;;;;20.37;3.87;;;;;;;;;;5027103;28;20327;-60
2021/04/03 09:20:44;;;;;;;20.40;4.10;;;;;;;;;;5011301;28;20273;-59
2021/04/03 09:23:10;;;;;;;21.77;4.77;;;;;;;;;;5011912;28;20445;-60
2021/04/03 09:25:35;;;;;;;16.03;4.07;;;;;;;;;;5011223;28;20367;-59
2021/04/03 09:28:10;;;;;;;10.93;2.87;;;;;;;;;;5011527;28;20034;-59
2021/04/03 09:30:37;;;;;;;15.77;4.37;;;;;;;;;;5013130;28;20030;-58
2021/04/03 09:33:16;;;;;;;15.03;3.60;;;;;;;;;;5020740;28;20021;-59
2021/04/03 09:35:41;;;;;;;15.97;3.23;;;;;;;;;;5019498;28;20459;-59
2021/04/03 09:38:07;;;;;;;22.13;3.42;;;;;;;;;;5020435;28;20123;-59
2021/04/03 09:40:37;;;;;;;18.92;4.13;;;;;;;;;;5013653;28;20026;-59
2021/04/03 09:43:02;;;;;;;18.60;3.77;;;;;;;;;;5009793;28;20040;-59
2021/04/03 09:45:28;;;;;;;20.08;4.65;;;;;;;;;;5010810;28;20022;-60
2021/04/03 09:47:55;;;;;;;17.02;4.97;;;;;;;;;;5011647;28;20042;-60
2021/04/03 09:50:21;;;;;;;21.37;4.53;;;;;;;;;;5010948;28;20042;-58
2021/04/03 09:52:46;;;;;;;13.13;3.53;;;;;;;;;;5009923;28;20530;-59
2021/04/03 09:55:11;;;;;;;20.70;4.40;;;;;;;;;;5011673;28;20488;-60
2021/04/03 09:57:37;;;;;;;18.58;4.28;;;;;;;;;;5014174;28;20525;-59
2021/04/03 10:00:03;;;;;;;15.35;3.20;;;;;;;;;;5027214;28;20490;-60
2021/04/03 10:02:30;;;;;;;15.53;3.40;;;;;;;;;;5011715;28;20034;-60
2021/04/03 10:04:55;;;;;;;;;;;;;;;;;;5011847;28;20034;-61
2021/04/03 10:07:20;;;;;;;17.40;3.07;;;;;;;;;;5009318;28;19999;-59
2021/04/03 10:09:46;;;;;;;;;;;;;;;;;;5028352;28;20030;-60
2021/04/03 10:12:11;;;;;;;15.13;3.87;;;;;;;;;;5015301;28;19909;-59
2021/04/03 10:14:36;;;;;;;;;;;;;;;;;;5006481;28;20066;-60
2021/04/03 10:17:02;;;;;;;16.50;3.13;;;;;;;;;;4994721;28;19916;-61
2021/04/03 10:19:27;;;;;;;;;;;;;;;;;;4995929;28;20348;-61
2021/04/03 10:21:52;;;;;;;16.57;3.80;;;;;;;;;;4995782;28;20031;-61
2021/04/03 10:24:18;;;;;;;;;;;;;;;;;;4996259;28;20069;-59
2021/04/03 10:26:43;;;;;;;18.90;3.60;;;;;;;;;;5011363;28;19913;-59
2021/04/03 10:29:08;;;;;;;;;;;;;;;;;;5014965;28;20109;-59
2021/04/03 10:31:34;;;;;;;12.27;2.90;;;;;;;;;;5014778;28;19956;-60
2021/04/03 10:33:59;;;;;;;;;;;;;;;;;;5014189;28;20405;-60
2021/04/03 10:36:24;;;;;;;18.10;4.77;;;;;;;;;;5014209;28;20333;-59
2021/04/03 10:38:50;;;;;;;;;;;;;;;;;;5015429;28;20030;-60
2021/04/03 10:41:16;;;;;;;11.00;3.57;;;;;;;;;;5014537;28;19905;-60
2021/04/03 10:43:41;;;;;;;12.57;3.00;;;;;;;;;;5013949;28;20034;-59
2021/04/03 10:46:06;;;;;;;;;;;;;;;;;;5013753;28;20529;-59
2021/04/03 10:48:35;;;;;;;13.30;3.30;;;;;;;;;;5012844;28;19916;-60
2021/04/03 10:51:01;;;;;;;12.60;3.30;;;;;;;;;;5013486;28;20482;-59
2021/04/03 10:53:26;;;;;;;;;;;;;;;;;;5014420;28;20049;-60
2021/04/03 10:55:52;;;;;;;10.63;2.53;;;;;;;;;;5014169;28;20361;-60
2021/04/03 10:58:17;;;;;;;;;;;;;;;;;;4996832;28;20038;-60
2021/04/03 11:00:42;;;;;;;17.70;3.77;;;;;;;;;;5013934;28;20301;-59
2021/04/03 11:03:07;;;;;;;;;;;;;;;;;;5013477;28;20427;-60
2021/04/03 11:05:33;;;;;;;12.63;2.50;;;;;;;;;;5013860;28;19913;-59
2021/04/03 11:07:59;;;;;;;;;;;;;;;;;;5014828;28;20036;-59
2021/04/03 11:10:24;;;;;;;15.53;3.37;;;;;;;;;;5013474;28;19909;-59
2021/04/03 11:12:50;;;;;;;20.57;3.53;;;;;;;;;;5014319;28;20026;-60
2021/04/03 11:15:15;;;;;;;11.53;2.60;;;;;;;;;;5012469;28;20022;-60
2021/04/03 11:17:40;;;;;;;14.63;3.10;;;;;;;;;;5013782;28;20110;-59
2021/04/03 11:20:06;;;;;;;;;;;;;;;;;;5014727;28;20034;-59
2021/04/03 11:22:31;;;;;;;13.73;3.93;;;;;;;;;;5013339;28;19952;-59
2021/04/03 11:24:56;;;;;;;17.60;3.95;;;;;;;;;;5012432;28;20045;-59
2021/04/03 11:27:22;;;;;;;14.48;3.70;;;;;;;;;;5014184;28;20467;-59
2021/04/03 11:29:48;;;;;;;14.93;3.35;;;;;;;;;;5011249;28;20095;-60
2021/04/03 11:32:13;;;;;;;10.65;2.90;;;;;;;;;;5014034;28;20037;-59
2021/04/03 11:34:39;;;;;;;14.43;4.25;;;;;;;;;;5013536;28;20052;-59
2021/04/03 11:37:04;;;;;;;10.68;2.63;;;;;;;;;;5012325;28;20123;-59
2021/04/03 11:39:30;;;;;;;9.73;2.83;;;;;;;;;;5012758;28;20034;-59
2021/04/03 11:41:55;;;;;;;12.02;2.63;;;;;;;;;;5013927;28;20026;-59
2021/04/03 11:44:23;;;;;;;17.05;3.10;;;;;;;;;;5013300;28;20038;-59
2021/04/03 11:46:49;;;;;;;13.35;4.30;;;;;;;;;;5028071;28;20466;-59
2021/04/03 11:49:14;;;;;;;11.48;3.38;;;;;;;;;;5013687;28;20034;-59
2021/04/03 11:51:39;;;;;;;14.43;2.97;;;;;;;;;;5012582;28;20057;-58
2021/04/03 11:54:05;;;;;;;14.82;3.75;;;;;;;;;;5012799;28;20030;-59
2021/04/03 11:56:30;;;;;;;12.85;3.25;;;;;;;;;;5012918;28;20496;-58
2021/04/03 11:58:56;;;;;;;15.55;3.47;;;;;;;;;;5012744;28;20105;-58
2021/04/03 12:01:21;;;;;;;15.48;3.67;;;;;;;;;;5013253;28;20204;-59
2021/04/03 12:03:46;;;;;;;16.63;3.63;;;;;;;;;;5012593;28;20708;-59
2021/04/03 12:06:12;;;;;;;12.65;3.05;;;;;;;;;;5012987;28;20034;-60
2021/04/03 12:08:37;;;;;;;14.52;3.40;;;;;;;;;;5012613;28;20482;-58
2021/04/03 12:11:02;;;;;;;18.15;3.50;;;;;;;;;;5012626;28;20069;-58
2021/04/03 12:13:28;;;;;;;14.80;3.72;;;;;;;;;;5027376;28;20088;-59
2021/04/03 12:15:53;;;;;;;11.02;2.65;;;;;;;;;;5012964;28;20486;-60
2021/04/03 12:18:19;;;;;;;14.27;4.35;;;;;;;;;;5011677;28;20026;-60
2021/04/03 12:20:44;;;;;;;11.75;3.35;;;;;;;;;;5011989;28;20119;-60
2021/04/03 12:23:10;;;;;;;11.23;3.13;;;;;;;;;;5012610;28;20030;-59
2021/04/03 12:25:36;;;;;;;16.52;4.43;;;;;;;;;;5011889;28;20030;-59
2021/04/03 12:28:01;;;;;;;15.65;3.95;;;;;;;;;;5011789;28;20065;-58
2021/04/03 12:30:26;;;;;;;13.13;3.70;;;;;;;;;;5012454;28;20044;-59
2021/04/03 12:32:52;;;;;;;9.38;3.20;;;;;;;;;;4993836;28;20030;-58
2021/04/03 12:35:17;;;;;;;13.98;3.38;;;;;;;;;;5012761;28;20133;-60
2021/04/03 12:37:42;;;;;;;15.45;3.95;;;;;;;;;;5012136;28;20034;-59
2021/04/03 12:40:08;;;;;;;15.25;3.38;;;;;;;;;;5011880;28;20053;-59
2021/04/03 12:42:34;;;;;;;14.15;3.03;;;;;;;;;;5010143;28;20076;-58
2021/04/03 12:44:59;;;;;;;15.70;3.33;;;;;;;;;;5012535;28;20066;-60
2021/04/03 12:47:25;;;;;;;14.25;3.90;;;;;;;;;;5012397;28;20534;-60
2021/04/03 12:49:50;;;;;;;16.98;3.75;;;;;;;;;;5011936;28;20121;-60
2021/04/03 12:52:15;;;;;;;14.10;4.13;;;;;;;;;;5010351;28;20061;-58
2021/04/03 12:54:41;;;;;;;10.40;3.28;;;;;;;;;;5010469;28;20037;-59
2021/04/03 12:57:06;;;;;;;16.45;4.15;;;;;;;;;;5010977;28;20034;-60
2021/04/03 12:59:32;;;;;;;9.35;2.95;;;;;;;;;;5026753;28;20120;-60
2021/04/03 13:01:57;;;;;;;12.48;3.60;;;;;;;;;;5026057;28;20038;-60
2021/04/03 13:04:23;;;;;;;14.43;2.97;;;;;;;;;;5011294;28;20091;-60
2021/04/03 13:06:48;;;;;;;12.40;3.00;;;;;;;;;;5010716;28;20026;-60
2021/04/03 13:09:14;;;;;;;11.38;2.88;;;;;;;;;;5010771;28;20474;-59
2021/04/03 13:11:40;;;;;;;10.80;3.22;;;;;;;;;;5010664;28;20037;-59
2021/04/03 13:14:05;;;;;;;10.82;2.63;;;;;;;;;;5010447;28;20038;-59
2021/04/03 13:16:31;;;;;;;14.43;3.83;;;;;;;;;;5009994;28;20048;-59
2021/04/03 13:18:56;;;;;;;13.82;3.05;;;;;;;;;;5010750;28;20096;-59
2021/04/03 13:21:22;;;;;;;8.70;3.10;;;;;;;;;;5026346;28;20029;-59
2021/04/03 13:23:47;;;;;;;11.38;2.72;;;;;;;;;;5010055;28;20037;-59
2021/04/03 13:26:12;;;;;;;12.25;3.35;;;;;;;;;;5009621;28;20060;-59
2021/04/03 13:28:38;;;;;;;14.93;3.25;;;;;;;;;;5009665;28;20029;-59
2021/04/03 13:31:03;;;;;;;14.38;3.47;;;;;;;;;;5011152;28;20022;-60
2021/04/03 13:33:29;;;;;;;8.95;2.40;;;;;;;;;;5010630;28;20120;-60
2021/04/03 13:35:54;;;;;;;12.07;3.45;;;;;;;;;;5010363;28;20033;-58
2021/04/03 13:38:19;;;;;;;15.40;4.35;;;;;;;;;;5009345;28;20034;-59
2021/04/03 13:40:45;;;;;;;8.52;2.85;;;;;;;;;;5010407;28;20034;-59
2021/04/03 13:43:10;;;;;;;20.83;2.97;;;;;;;;;;5010133;28;20022;-60
2021/04/03 13:45:35;;;;;;;15.80;3.83;;;;;;;;;;5009983;28;20082;-60
2021/04/03 13:48:01;;;;;;;11.57;2.92;;;;;;;;;;5010285;28;20037;-59
2021/04/03 13:50:26;;;;;;;13.18;3.85;;;;;;;;;;5009463;28;20022;-59
2021/04/03 13:52:51;;;;;;;12.25;4.47;;;;;;;;;;4989628;28;607443;-59
2021/04/03 13:55:17;;;;;;;12.05;2.40;;;;;;;;;;5011057;28;20397;-58
2021/04/03 13:57:42;;;;;;;15.48;3.13;;;;;;;;;;5010612;28;20038;-59
2021/04/03 14:00:08;;;;;;;12.82;3.28;;;;;;;;;;5011759;28;20034;-59
2021/04/03 14:02:40;;;;;;;14.35;3.67;;;;;;;;;;5025420;28;20034;-59
2021/04/03 14:05:06;;;;;;;13.73;2.83;;;;;;;;;;5010331;28;20452;-59
2021/04/03 14:07:31;;;;;;;8.00;2.60;;;;;;;;;;5011612;28;20102;-59
2021/04/03 14:09:56;;;;;;;13.60;3.88;;;;;;;;;;5010380;28;20026;-59
2021/04/03 14:12:22;;;;;;;8.68;2.80;;;;;;;;;;5009901;28;20038;-59
2021/04/03 14:14:47;;;;;;;16.08;3.08;;;;;;;;;;5010886;28;20112;-59
2021/04/03 14:17:12;;;;;;;12.80;3.20;;;;;;;;;;5010348;28;20062;-59
2021/04/03 14:19:38;;;;;;;9.63;2.30;;;;;;;;;;5011450;28;20423;-59
2021/04/03 14:22:03;;;;;;;12.52;2.80;;;;;;;;;;5010744;28;20038;-60
2021/04/03 14:24:28;;;;;;;21.02;4.38;;;;;;;;;;5026191;28;20354;-60
2021/04/03 14:26:54;;;;;;;16.20;3.75;;;;;;;;;;5010445;28;20041;-59
2021/04/03 14:29:19;;;;;;;13.75;3.10;;;;;;;;;;5011085;28;20038;-59
2021/04/03 14:31:44;;;;;;;13.15;4.03;;;;;;;;;;5010958;28;20030;-59
2021/04/03 14:34:10;;;;;;;9.30;2.83;;;;;;;;;;5011176;28;20102;-59